createdAt,value
2023-02-26T00:02:03.718Z,0.95
2023-02-26T00:04:38.459Z,1.05
2023-02-26T00:07:23.331Z,1.08
2023-02-26T00:09:55.215Z,1.05
2023-02-26T00:12:25.675Z,1.00
2023-02-26T00:14:55.630Z,1.01
2023-02-26T00:17:50.349Z,0.94
2023-02-26T00:20:22.143Z,1.08
2023-02-26T00:22:54.619Z,1.11
2023-02-26T00:25:22.340Z,1.13
2023-02-26T00:27:54.205Z,1.11
2023-02-26T00:30:22.369Z,0.99
2023-02-26T00:32:50.467Z,1.06
2023-02-26T00:35:18.902Z,1.06
2023-02-26T00:37:57.712Z,1.02
2023-02-26T00:40:31.194Z,0.99
2023-02-26T00:42:59.216Z,1.10
2023-02-26T00:45:27.566Z,1.08
2023-02-26T00:48:07.138Z,1.09
2023-02-26T00:50:35.144Z,1.14
2023-02-26T00:53:09.698Z,1.11
2023-02-26T00:55:37.394Z,1.12
2023-02-26T00:58:05.681Z,0.99
2023-02-26T01:00:33.483Z,1.10
2023-02-26T01:03:02.345Z,1.04
2023-02-26T01:05:31.583Z,1.05
2023-02-26T01:08:05.781Z,1.06
2023-02-26T01:10:34.371Z,1.08
2023-02-26T01:13:02.381Z,1.11
2023-02-26T01:15:37.775Z,1.15
2023-02-26T01:18:09.815Z,1.22
2023-02-26T01:20:41.524Z,1.16
2023-02-26T01:23:13.874Z,1.15
2023-02-26T01:25:45.421Z,1.18
2023-02-26T01:28:13.487Z,1.26
2023-02-26T01:30:41.551Z,1.23
2023-02-26T01:33:13.908Z,1.28
2023-02-26T01:35:44.150Z,1.29
2023-02-26T01:38:21.088Z,1.28
2023-02-26T01:41:19.801Z,1.28
2023-02-26T01:43:52.973Z,1.26
2023-02-26T01:46:26.337Z,1.24
2023-02-26T01:48:57.085Z,1.26
2023-02-26T01:51:47.975Z,1.30
2023-02-26T01:54:20.113Z,1.18
2023-02-26T01:56:52.019Z,1.19
2023-02-26T01:59:24.398Z,1.22
2023-02-26T02:01:56.022Z,1.16
2023-02-26T02:04:24.608Z,1.08
2023-02-26T02:06:53.718Z,1.04
2023-02-26T02:09:23.193Z,1.02
2023-02-26T02:18:39.726Z,0.91
2023-02-26T02:21:24.179Z,0.94
2023-02-26T02:23:56.439Z,0.92
2023-02-26T02:26:39.770Z,0.94
2023-02-26T02:29:53.500Z,0.96
2023-02-26T02:32:23.936Z,0.91
2023-02-26T02:34:54.319Z,0.85
2023-02-26T02:37:25.370Z,0.88
2023-02-26T02:39:55.783Z,0.90
2023-02-26T02:42:27.693Z,0.92
2023-02-26T02:44:58.926Z,0.99
2023-02-26T02:47:28.706Z,1.01
2023-02-26T02:50:06.083Z,1.06
2023-02-26T02:52:39.063Z,0.93
2023-02-26T02:55:10.836Z,0.94
2023-02-26T02:57:40.996Z,0.79
2023-02-26T03:00:11.761Z,0.94
2023-02-26T03:02:44.385Z,0.95
2023-02-26T03:05:12.156Z,0.95
2023-02-26T03:07:44.290Z,0.93
2023-02-26T03:10:21.612Z,0.80
2023-02-26T03:13:08.980Z,0.81
2023-02-26T03:15:40.971Z,0.75
2023-02-26T03:18:19.910Z,0.70
2023-02-26T03:20:56.245Z,0.61
2023-02-26T03:23:28.634Z,0.53
2023-02-26T03:25:58.885Z,0.60
2023-02-26T03:28:30.360Z,0.57
2023-02-26T03:31:00.947Z,0.46
2023-02-26T03:33:34.686Z,0.49
2023-02-26T03:36:06.540Z,0.44
2023-02-26T03:38:43.862Z,0.41
2023-02-26T03:41:14.275Z,0.37
2023-02-26T03:43:47.033Z,0.35
2023-02-26T03:46:17.679Z,0.34
2023-02-26T03:48:47.937Z,0.31
2023-02-26T03:51:16.261Z,0.33
2023-02-26T03:53:49.684Z,0.31
2023-02-26T03:56:19.845Z,0.32
2023-02-26T03:58:47.527Z,0.28
2023-02-26T04:01:18.606Z,0.33
2023-02-26T04:03:51.477Z,0.29
2023-02-26T04:06:20.331Z,0.29
2023-02-26T04:08:49.332Z,0.20
2023-02-26T04:11:21.108Z,0.18
2023-02-26T04:13:49.476Z,0.15
2023-02-26T04:16:18.685Z,0.09
2023-02-26T04:18:48.499Z,0.03
2023-02-26T04:21:18.913Z,0.04
2023-02-26T04:23:46.690Z,0.02
2023-02-26T04:26:14.345Z,0.00
2023-02-26T04:28:44.766Z,-0.02
2023-02-26T04:31:12.630Z,-0.02
2023-02-26T04:33:40.363Z,-0.04
2023-02-26T04:36:10.496Z,-0.13
2023-02-26T04:38:38.125Z,-0.13
2023-02-26T04:41:07.948Z,-0.08
2023-02-26T04:43:35.629Z,-0.14
2023-02-26T04:46:03.516Z,-0.10
2023-02-26T04:48:31.095Z,-0.15
2023-02-26T04:54:28.923Z,-0.21
2023-02-26T04:56:56.884Z,-0.20
2023-02-26T04:59:24.461Z,-0.23
2023-02-26T05:01:52.107Z,-0.26
2023-02-26T05:04:22.008Z,-0.29
2023-02-26T05:06:49.650Z,-0.29
2023-02-26T05:09:17.207Z,-0.31
2023-02-26T05:11:47.349Z,-0.28
2023-02-26T05:14:16.166Z,-0.31
2023-02-26T05:16:43.675Z,-0.29
2023-02-26T05:19:11.335Z,-0.28
2023-02-26T05:21:39.017Z,-0.28
2023-02-26T05:24:07.060Z,-0.29
2023-02-26T05:26:34.645Z,-0.30
2023-02-26T05:29:03.579Z,-0.35
2023-02-26T05:31:31.188Z,-0.33
2023-02-26T05:33:58.747Z,-0.37
2023-02-26T05:36:26.729Z,-0.35
2023-02-26T05:38:55.017Z,-0.32
2023-02-26T05:41:22.899Z,-0.35
2023-02-26T05:43:52.948Z,-0.37
2023-02-26T05:46:21.882Z,-0.33
2023-02-26T05:48:49.863Z,-0.31
2023-02-26T05:51:17.977Z,-0.23
2023-02-26T05:53:46.538Z,-0.26
2023-02-26T05:56:17.741Z,-0.31
2023-02-26T05:58:48.077Z,-0.29
2023-02-26T06:01:21.281Z,-0.32
2023-02-26T06:03:52.341Z,-0.34
2023-02-26T06:06:35.840Z,-0.35
2023-02-26T06:09:03.672Z,-0.30
2023-02-26T06:11:35.892Z,-0.29
2023-02-26T06:14:03.579Z,-0.32
2023-02-26T06:16:32.798Z,-0.34
2023-02-26T06:19:01.862Z,-0.30
2023-02-26T06:21:29.658Z,-0.30
2023-02-26T06:23:59.394Z,-0.29
2023-02-26T06:26:27.581Z,-0.30
2023-02-26T06:28:55.400Z,-0.26
2023-02-26T06:31:23.057Z,-0.30
2023-02-26T06:33:50.706Z,-0.31
2023-02-26T06:36:19.742Z,-0.26
2023-02-26T06:38:47.645Z,-0.25
2023-02-26T06:41:15.202Z,-0.26
2023-02-26T06:43:42.988Z,-0.24
2023-02-26T06:46:10.797Z,-0.26
2023-02-26T06:48:38.722Z,-0.28
2023-02-26T06:51:07.554Z,-0.24
2023-02-26T06:53:36.751Z,-0.26
2023-02-26T06:56:04.953Z,-0.28
2023-02-26T06:58:32.814Z,-0.23
2023-02-26T07:01:00.513Z,-0.25
2023-02-26T07:03:28.112Z,-0.27
2023-02-26T07:05:56.248Z,-0.28
2023-02-26T07:08:24.209Z,-0.24
2023-02-26T07:10:53.543Z,-0.26
2023-02-26T07:13:23.458Z,-0.25
2023-02-26T07:15:51.117Z,-0.22
2023-02-26T07:18:18.631Z,-0.16
2023-02-26T07:20:46.207Z,-0.20
2023-02-26T07:23:13.842Z,-0.13
2023-02-26T07:25:45.869Z,-0.07
2023-02-26T07:28:15.073Z,-0.08
2023-02-26T07:30:43.210Z,-0.05
2023-02-26T07:33:13.293Z,-0.03
2023-02-26T07:35:41.484Z,-0.05
2023-02-26T07:38:09.055Z,-0.02
2023-02-26T07:40:36.746Z,0.02
2023-02-26T07:43:51.192Z,0.08
2023-02-26T07:46:12.168Z,0.10
2023-02-26T07:49:00.869Z,0.13
2023-02-26T07:54:27.921Z,0.25
2023-02-26T07:56:55.906Z,0.34
2023-02-26T07:59:23.996Z,0.37
2023-02-26T08:01:53.089Z,0.49
2023-02-26T08:04:21.337Z,0.54
2023-02-26T08:06:48.963Z,0.62
2023-02-26T08:09:17.168Z,0.55
2023-02-26T08:21:32.017Z,0.39
2023-02-26T08:24:06.177Z,0.53
2023-02-26T08:26:38.355Z,0.55
2023-02-26T08:29:06.892Z,0.62
2023-02-26T08:31:36.229Z,0.61
2023-02-26T08:34:09.354Z,0.58
2023-02-26T08:36:37.905Z,0.61
2023-02-26T08:39:09.942Z,0.70
2023-02-26T08:41:41.801Z,0.75
2023-02-26T08:44:18.749Z,0.80
2023-02-26T08:46:50.929Z,0.72
2023-02-26T08:50:24.507Z,0.74
2023-02-26T08:53:30.705Z,0.86
2023-02-26T08:56:00.746Z,0.78
2023-02-26T08:58:28.651Z,0.82
2023-02-26T09:01:02.023Z,0.83
2023-02-26T09:03:32.346Z,0.94
2023-02-26T09:06:06.215Z,0.95
2023-02-26T09:08:35.015Z,1.00
2023-02-26T09:11:04.396Z,0.98
2023-02-26T09:13:32.867Z,1.03
2023-02-26T09:16:00.693Z,1.06
2023-02-26T09:18:29.609Z,1.18
2023-02-26T09:20:57.224Z,1.23
2023-02-26T09:23:26.078Z,1.14
2023-02-26T09:25:55.055Z,1.20
2023-02-26T09:28:22.813Z,1.27
2023-02-26T09:30:52.613Z,1.21
2023-02-26T09:33:20.607Z,1.20
2023-02-26T09:35:49.500Z,1.23
2023-02-26T09:38:17.105Z,1.29
2023-02-26T09:40:51.277Z,1.27
2023-02-26T09:43:58.007Z,1.29
2023-02-26T09:46:36.087Z,1.31
2023-02-26T09:49:11.155Z,1.34
2023-02-26T09:51:38.717Z,1.41
2023-02-26T09:54:16.100Z,1.38
2023-02-26T09:56:45.830Z,1.42
2023-02-26T09:59:13.499Z,1.50
2023-02-26T10:01:44.032Z,1.49
2023-02-26T10:04:20.638Z,1.56
2023-02-26T10:07:10.044Z,1.62
2023-02-26T10:09:48.350Z,1.62
2023-02-26T10:12:19.310Z,1.61
2023-02-26T10:14:52.341Z,1.67
2023-02-26T10:17:23.561Z,1.64
2023-02-26T10:19:55.005Z,1.72
2023-02-26T10:22:25.784Z,1.92
2023-02-26T10:24:57.830Z,1.99
2023-02-26T10:27:38.485Z,1.97
2023-02-26T10:30:10.439Z,2.10
2023-02-26T10:32:39.971Z,2.04
2023-02-26T10:35:11.433Z,2.11
2023-02-26T10:37:45.452Z,2.24
2023-02-26T10:40:15.964Z,2.30
2023-02-26T10:42:47.953Z,2.15
2023-02-26T10:45:26.553Z,2.23
2023-02-26T10:48:01.807Z,2.25
2023-02-26T10:50:30.494Z,2.26
2023-02-26T10:52:58.816Z,2.28
2023-02-26T10:55:30.923Z,2.39
2023-02-26T10:58:05.923Z,2.55
2023-02-26T11:00:35.454Z,2.49
2023-02-26T11:03:05.738Z,2.44
2023-02-26T11:05:34.597Z,2.39
2023-02-26T11:08:04.903Z,2.43
2023-02-26T11:10:41.800Z,2.49
2023-02-26T11:13:12.919Z,2.48
2023-02-26T11:15:41.321Z,2.60
2023-02-26T11:18:16.866Z,2.69
2023-02-26T11:20:46.507Z,2.69
2023-02-26T11:23:17.337Z,2.77
2023-02-26T11:25:45.778Z,2.74
2023-02-26T11:28:23.589Z,2.80
2023-02-26T11:30:54.232Z,2.82
2023-02-26T11:33:28.874Z,2.77
2023-02-26T11:36:00.033Z,2.87
2023-02-26T11:38:28.556Z,2.84
2023-02-26T11:40:57.769Z,2.78
2023-02-26T11:43:28.868Z,2.88
2023-02-26T11:46:00.665Z,2.94
2023-02-26T11:48:31.946Z,3.08
2023-02-26T11:51:01.762Z,3.19
2023-02-26T11:53:33.699Z,3.30
2023-02-26T11:56:03.729Z,3.22
2023-02-26T11:58:37.384Z,3.26
2023-02-26T12:01:05.940Z,3.15
2023-02-26T12:03:34.830Z,3.17
2023-02-26T12:06:04.337Z,3.18
2023-02-26T12:08:38.264Z,3.06
2023-02-26T12:11:35.638Z,3.09
2023-02-26T12:14:13.537Z,3.02
2023-02-26T12:16:49.609Z,3.10
2023-02-26T12:19:21.799Z,3.23
2023-02-26T12:22:23.293Z,3.25
2023-02-26T12:25:21.634Z,3.26
2023-02-26T12:28:05.191Z,3.31
2023-02-26T12:30:49.487Z,3.41
2023-02-26T12:33:24.736Z,3.57
2023-02-26T12:36:01.795Z,3.59
2023-02-26T12:38:31.640Z,3.46
2023-02-26T12:41:14.982Z,3.46
2023-02-26T12:43:47.311Z,3.37
2023-02-26T12:46:23.794Z,3.41
2023-02-26T12:49:15.889Z,3.50
2023-02-26T12:51:55.539Z,3.40
2023-02-26T12:54:36.424Z,3.39
2023-02-26T12:57:20.778Z,3.31
2023-02-26T13:00:16.116Z,3.28
2023-02-26T13:03:22.075Z,3.37
2023-02-26T13:06:19.288Z,3.41
2023-02-26T13:08:54.012Z,3.49
2023-02-26T13:11:28.087Z,3.53
2023-02-26T13:14:10.744Z,3.57
2023-02-26T13:16:47.244Z,3.66
2023-02-26T13:19:26.036Z,3.67
2023-02-26T13:21:58.198Z,3.66
2023-02-26T13:24:29.768Z,3.72
2023-02-26T13:26:57.306Z,3.73
2023-02-26T13:29:27.231Z,3.69
2023-02-26T13:31:59.506Z,3.77
2023-02-26T13:34:36.177Z,3.77
2023-02-26T13:37:06.428Z,3.75
2023-02-26T13:39:43.088Z,3.77
2023-02-26T13:42:26.453Z,3.79
2023-02-26T13:45:04.151Z,3.75
2023-02-26T13:47:42.436Z,3.70
2023-02-26T13:50:22.123Z,3.74
2023-02-26T13:52:55.853Z,3.88
2023-02-26T13:55:44.022Z,3.86
2023-02-26T13:58:29.059Z,3.76
2023-02-26T14:01:02.252Z,3.83
2023-02-26T14:03:34.779Z,3.87
2023-02-26T14:06:11.708Z,3.92
2023-02-26T14:08:49.275Z,3.85
2023-02-26T14:11:53.432Z,3.77
2023-02-26T14:14:27.392Z,3.81
2023-02-26T14:16:56.674Z,3.85
2023-02-26T14:19:28.759Z,3.85
2023-02-26T14:21:58.838Z,3.87
2023-02-26T14:24:36.528Z,3.75
2023-02-26T14:27:25.686Z,3.74
2023-02-26T14:30:03.694Z,3.63
2023-02-26T14:32:32.712Z,3.57
2023-02-26T14:35:04.882Z,3.56
2023-02-26T14:37:38.022Z,3.47
2023-02-26T14:40:12.585Z,3.36
2023-02-26T14:42:44.128Z,3.36
2023-02-26T14:45:29.024Z,3.38
2023-02-26T14:47:57.920Z,3.40
2023-02-26T14:50:27.427Z,3.44
2023-02-26T14:53:09.759Z,3.56
2023-02-26T14:55:46.672Z,3.50
2023-02-26T14:58:31.678Z,3.41
2023-02-26T15:01:19.534Z,3.36
2023-02-26T15:04:41.453Z,3.30
2023-02-26T15:07:36.646Z,3.27
2023-02-26T15:10:18.459Z,3.30
2023-02-26T15:12:59.821Z,3.34
2023-02-26T15:15:40.412Z,3.44
2023-02-26T15:18:21.206Z,3.54
2023-02-26T15:21:04.653Z,3.48
2023-02-26T15:23:40.440Z,3.34
2023-02-26T15:26:11.336Z,3.34
2023-02-26T15:28:42.091Z,3.23
2023-02-26T15:31:13.592Z,3.26
2023-02-26T15:33:41.786Z,3.24
2023-02-26T15:36:13.953Z,3.27
2023-02-26T15:38:44.130Z,3.20
2023-02-26T15:41:12.866Z,3.16
2023-02-26T15:43:45.941Z,3.16
2023-02-26T15:46:13.551Z,3.16
2023-02-26T15:48:42.747Z,3.08
2023-02-26T15:51:14.189Z,3.07
2023-02-26T15:53:44.945Z,3.05
2023-02-26T15:56:14.969Z,3.05
2023-02-26T15:58:46.356Z,2.98
2023-02-26T16:01:17.057Z,2.92
2023-02-26T16:03:44.761Z,2.86
2023-02-26T16:06:14.572Z,2.89
2023-02-26T16:08:43.032Z,2.92
2023-02-26T16:11:11.740Z,2.84
2023-02-26T16:13:43.842Z,2.84
2023-02-26T16:16:19.331Z,2.75
2023-02-26T16:18:47.278Z,2.79
2023-02-26T16:21:29.645Z,2.82
2023-02-26T16:23:58.267Z,2.81
2023-02-26T16:26:31.427Z,2.78
2023-02-26T16:29:01.872Z,2.82
2023-02-26T16:31:33.678Z,2.82
2023-02-26T16:34:02.883Z,2.77
2023-02-26T16:36:33.117Z,2.72
2023-02-26T16:39:04.074Z,2.67
2023-02-26T16:41:35.040Z,2.67
2023-02-26T16:44:05.404Z,2.63
2023-02-26T16:46:38.902Z,2.64
2023-02-26T16:49:11.674Z,2.65
2023-02-26T16:51:41.058Z,2.63
2023-02-26T16:54:15.000Z,2.64
2023-02-26T16:56:44.117Z,2.57
2023-02-26T16:59:16.796Z,2.52
2023-02-26T17:01:54.971Z,2.51
2023-02-26T17:04:24.731Z,2.45
2023-02-26T17:06:53.243Z,2.45
2023-02-26T17:09:36.971Z,2.43
2023-02-26T17:12:16.588Z,2.41
2023-02-26T17:14:48.359Z,2.40
2023-02-26T17:17:19.714Z,2.38
2023-02-26T17:19:49.071Z,2.35
2023-02-26T17:22:18.966Z,2.34
2023-02-26T17:24:47.441Z,2.36
2023-02-26T17:27:17.804Z,2.32
2023-02-26T17:29:48.922Z,2.33
2023-02-26T17:32:22.771Z,2.35
2023-02-26T17:34:50.619Z,2.33
2023-02-26T17:37:22.748Z,2.32
2023-02-26T17:39:50.363Z,2.33
2023-02-26T17:42:21.352Z,2.34
2023-02-26T17:44:49.588Z,2.32
2023-02-26T17:47:21.220Z,2.35
2023-02-26T17:49:49.271Z,2.34
2023-02-26T17:52:17.514Z,2.41
2023-02-26T17:54:45.616Z,2.41
2023-02-26T17:57:17.718Z,2.40
2023-02-26T17:59:46.168Z,2.40
2023-02-26T18:02:19.443Z,2.43
2023-02-26T18:04:47.152Z,2.41
2023-02-26T18:07:16.616Z,2.39
2023-02-26T18:09:44.773Z,2.36
2023-02-26T18:12:15.425Z,2.38
2023-02-26T18:14:44.477Z,2.30
2023-02-26T18:17:14.596Z,2.29
2023-02-26T18:19:44.295Z,2.31
2023-02-26T18:22:17.532Z,2.28
2023-02-26T18:24:45.419Z,2.26
2023-02-26T18:27:15.816Z,2.25
2023-02-26T18:29:44.233Z,2.23
2023-02-26T18:32:17.331Z,2.23
2023-02-26T18:34:46.693Z,2.21
2023-02-26T18:37:16.215Z,2.16
2023-02-26T18:39:44.183Z,2.21
2023-02-26T18:42:21.207Z,2.20
2023-02-26T18:44:49.411Z,2.24
2023-02-26T18:47:17.410Z,2.25
2023-02-26T18:49:49.763Z,2.23
2023-02-26T18:52:17.891Z,2.22
2023-02-26T18:54:45.790Z,2.17
2023-02-26T18:57:17.074Z,2.13
2023-02-26T18:59:44.992Z,2.13
2023-02-26T19:02:18.458Z,2.09
2023-02-26T19:04:50.483Z,2.07
2023-02-26T19:07:20.871Z,2.06
2023-02-26T19:09:48.440Z,2.02
2023-02-26T19:12:19.973Z,2.06
2023-02-26T19:14:47.679Z,2.05
2023-02-26T19:17:15.308Z,2.06
2023-02-26T19:19:43.073Z,2.08
2023-02-26T19:22:13.994Z,2.06
2023-02-26T19:24:42.000Z,2.00
2023-02-26T19:27:14.009Z,1.99
2023-02-26T19:29:45.286Z,2.00
2023-02-26T19:32:13.054Z,2.04
2023-02-26T19:34:40.775Z,2.02
2023-02-26T19:37:10.583Z,2.02
2023-02-26T19:39:39.684Z,2.03
2023-02-26T19:42:07.430Z,2.04
2023-02-26T19:44:35.848Z,2.06
2023-02-26T19:47:03.966Z,2.01
2023-02-26T19:49:31.967Z,2.02
2023-02-26T19:52:00.844Z,1.98
2023-02-26T19:54:28.680Z,1.99
2023-02-26T19:56:57.695Z,1.93
2023-02-26T19:59:25.354Z,1.95
2023-02-26T20:01:53.020Z,1.94
2023-02-26T20:04:24.922Z,1.90
2023-02-26T20:06:53.767Z,1.87
2023-02-26T20:09:23.885Z,1.81
2023-02-26T20:11:51.445Z,1.74
2023-02-26T20:14:20.548Z,1.70
2023-02-26T20:16:49.262Z,1.68
2023-02-26T20:19:17.146Z,1.60
2023-02-26T20:21:44.998Z,1.57
2023-02-26T20:24:12.667Z,1.53
2023-02-26T20:26:48.988Z,1.44
2023-02-26T20:29:18.449Z,1.40
2023-02-26T20:31:49.914Z,1.38
2023-02-26T20:34:19.297Z,1.34
2023-02-26T20:36:48.259Z,1.32
2023-02-26T20:39:16.104Z,1.32
2023-02-26T20:41:43.822Z,1.35
2023-02-26T20:44:11.477Z,1.33
2023-02-26T20:46:39.747Z,1.27
2023-02-26T20:49:11.684Z,1.24
2023-02-26T20:51:40.142Z,1.21
2023-02-26T20:54:07.901Z,1.20
2023-02-26T20:56:35.527Z,1.15
2023-02-26T20:59:03.120Z,1.13
2023-02-26T21:01:35.692Z,1.12
2023-02-26T21:04:04.047Z,1.13
2023-02-26T21:06:34.059Z,1.11
2023-02-26T21:09:02.391Z,1.07
2023-02-26T21:11:31.510Z,1.11
2023-02-26T21:13:59.451Z,1.07
2023-02-26T21:16:28.371Z,1.09
2023-02-26T21:18:56.207Z,1.02
2023-02-26T21:21:24.219Z,1.04
2023-02-26T21:23:54.038Z,0.98
2023-02-26T21:26:22.189Z,0.94
2023-02-26T21:28:49.806Z,0.93
2023-02-26T21:31:19.596Z,0.95
2023-02-26T21:33:47.984Z,0.91
2023-02-26T21:36:15.808Z,0.96
2023-02-26T21:38:45.291Z,0.95
2023-02-26T21:41:25.426Z,0.91
2023-02-26T21:43:53.523Z,0.89
2023-02-26T21:46:22.808Z,0.86
2023-02-26T21:48:51.620Z,0.89
2023-02-26T21:51:21.347Z,0.85
2023-02-26T21:53:49.752Z,0.84
2023-02-26T21:56:20.259Z,0.84
2023-02-26T21:58:49.840Z,0.82
2023-02-26T22:01:27.498Z,0.81
2023-02-26T22:03:58.640Z,0.80
2023-02-26T22:06:36.379Z,0.76
2023-02-26T22:09:38.438Z,0.72
2023-02-26T22:12:13.121Z,0.71
2023-02-26T22:14:44.118Z,0.71
2023-02-26T22:17:15.735Z,0.67
2023-02-26T22:19:43.634Z,0.70
2023-02-26T22:22:13.342Z,0.71
2023-02-26T22:24:45.683Z,0.70
2023-02-26T22:27:13.337Z,0.74
2023-02-26T22:29:42.840Z,0.70
2023-02-26T22:32:11.002Z,0.66
2023-02-26T22:35:01.723Z,0.70
2023-02-26T22:37:35.247Z,0.63
2023-02-26T22:40:30.875Z,0.61
2023-02-26T22:42:59.638Z,0.59
2023-02-26T22:45:30.367Z,0.53
2023-02-26T22:47:59.226Z,0.46
2023-02-26T22:50:27.413Z,0.53
2023-02-26T22:52:55.218Z,0.49
2023-02-26T22:55:30.102Z,0.42
2023-02-26T22:58:02.103Z,0.44
2023-02-26T23:01:07.532Z,0.45
2023-02-26T23:03:35.368Z,0.42
2023-02-26T23:06:02.966Z,0.42
2023-02-26T23:08:30.526Z,0.39
2023-02-26T23:10:58.739Z,0.43
2023-02-26T23:13:27.192Z,0.39
2023-02-26T23:15:56.089Z,0.34
2023-02-26T23:18:23.707Z,0.34
2023-02-26T23:20:51.248Z,0.29
2023-02-26T23:23:18.898Z,0.29
2023-02-26T23:25:47.103Z,0.26
2023-02-26T23:28:14.628Z,0.17
2023-02-26T23:30:42.342Z,0.20
2023-02-26T23:33:11.377Z,0.14
2023-02-26T23:35:39.298Z,0.10
2023-02-26T23:38:07.318Z,0.11
2023-02-26T23:40:34.878Z,0.07
2023-02-26T23:43:02.404Z,0.07
2023-02-26T23:45:29.967Z,0.06
2023-02-26T23:47:57.505Z,0.03
2023-02-26T23:50:26.547Z,0.00
2023-02-26T23:52:54.105Z,0.00
2023-02-26T23:55:21.602Z,0.04
2023-02-26T23:57:49.156Z,0.03
